createdAt,value
2018-11-01T17:56:57.170Z,989.99
2018-11-01T17:57:57.617Z,990.02
2018-11-01T18:00:18.663Z,989.99
2018-11-01T18:02:49.354Z,990.07
2018-11-01T18:03:52.006Z,990.08
2018-11-01T18:04:47.777Z,990.13
2018-11-01T18:05:47.637Z,990.16
2018-11-01T18:06:47.932Z,990.21
2018-11-01T18:08:47.838Z,990.21
2018-11-01T18:09:47.415Z,990.26
2018-11-01T18:10:47.405Z,990.25
2018-11-01T18:11:47.404Z,990.22
2018-11-01T18:12:47.402Z,990.23
2018-11-01T18:13:47.372Z,990.20
2018-11-01T18:14:47.379Z,990.19
2018-11-01T18:15:47.372Z,990.19
2018-11-01T18:16:47.358Z,990.18
2018-11-01T18:17:47.338Z,990.17
2018-11-01T18:18:47.358Z,990.21
2018-11-01T18:19:47.312Z,990.24
2018-11-01T18:20:47.333Z,990.26
2018-11-01T18:21:47.297Z,990.26
2018-11-01T18:22:47.283Z,990.28
2018-11-01T18:23:47.291Z,990.29
2018-11-01T18:24:47.342Z,990.33
2018-11-01T18:25:47.452Z,990.27
2018-11-01T18:26:47.275Z,990.29
2018-11-01T18:27:47.238Z,990.30
2018-11-01T18:28:47.305Z,990.26
2018-11-01T18:29:47.236Z,990.27
2018-11-01T18:30:47.209Z,990.26
2018-11-01T18:31:47.255Z,990.25
2018-11-01T18:32:48.313Z,990.26
2018-11-01T18:33:47.205Z,990.24
2018-11-01T18:34:47.383Z,990.24
2018-11-01T18:35:47.194Z,990.21
2018-11-01T18:36:47.180Z,990.24
2018-11-01T18:37:47.202Z,990.21
2018-11-01T18:42:25.832Z,990.26
2018-11-01T18:43:24.484Z,990.27
2018-11-01T18:44:24.475Z,990.31
2018-11-01T18:45:24.391Z,990.31
2018-11-01T18:46:24.326Z,990.36
2018-11-01T18:47:24.328Z,990.36
2018-11-01T18:48:25.234Z,990.36
2018-11-01T18:49:24.642Z,990.37
2018-11-01T18:50:25.532Z,990.38
2018-11-01T18:51:24.730Z,990.46
2018-11-01T18:52:24.254Z,990.43
2018-11-01T18:53:24.369Z,990.53
2018-11-01T18:54:24.711Z,990.50
2018-11-01T18:55:25.924Z,990.61
2018-11-01T18:56:24.407Z,990.61
2018-11-01T18:57:24.528Z,990.61
2018-11-01T18:58:24.554Z,990.64
2018-11-01T18:59:25.456Z,990.66
2018-11-01T19:00:24.790Z,990.71
2018-11-01T19:01:24.251Z,990.67
2018-11-01T19:02:24.248Z,990.67
2018-11-01T19:03:24.189Z,990.70
2018-11-01T19:04:24.204Z,990.70
2018-11-01T19:05:24.140Z,990.71
2018-11-01T19:06:24.155Z,990.77
2018-11-01T19:07:24.131Z,990.77
2018-11-01T19:08:24.208Z,990.81
2018-11-01T19:09:24.104Z,990.78
2018-11-01T19:10:24.140Z,990.79
2018-11-01T19:11:24.085Z,990.81
2018-11-01T19:12:24.107Z,990.74
2018-11-01T19:13:24.134Z,990.79
2018-11-01T19:14:24.116Z,990.79
2018-11-01T19:15:24.050Z,990.84
2018-11-01T19:16:24.070Z,990.91
2018-11-01T19:17:24.287Z,990.90
2018-11-01T19:18:24.084Z,990.91
2018-11-01T19:19:24.047Z,990.89
2018-11-01T19:20:26.240Z,990.92
2018-11-01T19:21:24.049Z,990.94
2018-11-01T19:22:24.021Z,990.88
2018-11-01T19:23:23.995Z,990.93
2018-11-01T19:24:23.962Z,990.97
2018-11-01T19:25:24.024Z,990.99
2018-11-01T19:26:23.964Z,990.99
2018-11-01T19:27:24.160Z,990.96
2018-11-01T19:28:24.454Z,990.97
2018-11-01T19:29:23.933Z,990.91
2018-11-01T19:30:24.564Z,990.86
2018-11-01T19:31:25.483Z,990.83
2018-11-01T19:32:23.954Z,990.87
2018-11-01T19:33:24.971Z,990.85
2018-11-01T19:34:24.014Z,990.96
2018-11-01T19:35:23.868Z,991.05
2018-11-01T19:36:23.877Z,991.03
2018-11-01T19:37:23.848Z,990.96
2018-11-01T19:38:25.466Z,990.98
2018-11-01T19:39:23.830Z,990.99
2018-11-01T19:40:23.885Z,991.05
2018-11-01T19:41:23.843Z,991.09
2018-11-01T19:42:23.814Z,991.04
2018-11-01T19:43:23.790Z,991.04
2018-11-01T19:44:23.846Z,991.09
2018-11-01T19:45:23.871Z,991.09
2018-11-01T19:46:23.794Z,991.06
2018-11-01T19:47:23.798Z,991.14
2018-11-01T19:48:23.852Z,991.14
2018-11-01T19:49:23.757Z,991.15
2018-11-01T19:50:23.761Z,991.23
2018-11-01T19:51:23.759Z,991.22
2018-11-01T19:52:23.755Z,991.22
2018-11-01T19:53:23.862Z,991.28
2018-11-01T19:54:23.714Z,991.28
2018-11-01T19:55:23.706Z,991.32
2018-11-01T19:56:23.691Z,991.34
2018-11-01T19:57:23.766Z,991.40
2018-11-01T19:58:23.743Z,991.46
2018-11-01T19:59:25.584Z,991.44
2018-11-01T20:00:23.666Z,991.46
2018-11-01T20:01:23.744Z,991.48
2018-11-01T20:02:23.697Z,991.52
2018-11-01T20:03:23.665Z,991.58
2018-11-01T20:04:23.882Z,991.57
2018-11-01T20:05:23.685Z,991.59
2018-11-01T20:06:23.639Z,991.57
2018-11-01T20:09:00.509Z,991.58
2018-11-01T20:09:57.155Z,991.68
2018-11-01T20:11:49.319Z,991.74
2018-11-01T20:12:48.210Z,991.75
2018-11-01T20:14:49.723Z,991.79
2018-11-01T20:15:43.436Z,991.78
2018-11-01T20:17:36.742Z,991.78
2018-11-01T20:18:36.209Z,991.83
2018-11-01T20:20:30.819Z,991.85
2018-11-01T20:21:31.197Z,991.82
2018-11-01T20:23:24.667Z,991.87
2018-11-01T20:24:23.972Z,991.95
2018-11-01T20:26:16.949Z,991.99
2018-11-01T20:27:16.579Z,991.93
2018-11-01T20:29:09.729Z,991.85
2018-11-01T20:30:09.443Z,991.82
2018-11-01T20:32:03.175Z,991.78
2018-11-01T20:33:02.646Z,991.81
2018-11-01T20:34:56.676Z,991.60
2018-11-01T20:35:56.716Z,991.53
2018-11-01T20:37:51.755Z,991.65
2018-11-01T20:38:51.020Z,991.59
2018-11-01T20:39:50.908Z,991.51
2018-11-01T20:40:50.374Z,991.51
2018-11-01T20:41:50.361Z,991.63
2018-11-01T20:42:50.320Z,991.78
2018-11-01T20:43:50.344Z,991.83
2018-11-01T20:44:50.324Z,991.81
2018-11-01T20:45:50.335Z,991.83
2018-11-01T20:46:50.285Z,991.86
2018-11-01T20:47:50.277Z,991.91
2018-11-01T20:48:50.288Z,991.89
2018-11-01T20:49:50.265Z,991.86
2018-11-01T20:50:50.248Z,991.85
2018-11-01T20:51:50.241Z,991.80
2018-11-01T20:52:50.276Z,991.91
2018-11-01T20:53:50.229Z,991.93
2018-11-01T20:54:50.209Z,991.96
2018-11-01T20:55:50.202Z,991.97
2018-11-01T20:56:50.211Z,991.97
2018-11-01T20:57:50.317Z,991.97
2018-11-01T20:58:50.198Z,991.97
2018-11-01T20:59:50.179Z,991.94
2018-11-01T21:00:50.185Z,991.93
2018-11-01T21:01:50.219Z,991.91
2018-11-01T21:02:50.132Z,991.85
2018-11-01T21:03:50.125Z,991.80
2018-11-01T21:04:50.150Z,991.76
2018-11-01T21:05:50.197Z,991.70
2018-11-01T21:06:50.132Z,991.73
2018-11-01T21:07:50.099Z,991.72
2018-11-01T21:08:50.110Z,991.73
2018-11-01T21:09:50.125Z,991.78
2018-11-01T21:10:50.182Z,991.80
2018-11-01T21:11:50.334Z,991.88
2018-11-01T21:12:50.134Z,991.87
2018-11-01T21:13:50.095Z,991.90
2018-11-01T21:14:50.073Z,991.96
2018-11-01T21:15:50.039Z,992.00
2018-11-01T21:16:50.159Z,992.00
2018-11-01T21:19:59.904Z,992.14
2018-11-01T21:20:56.412Z,992.16
2018-11-01T21:23:47.106Z,992.24
2018-11-01T21:24:56.874Z,992.26
2018-11-01T21:26:41.804Z,992.33
2018-11-01T21:27:48.582Z,992.39
2018-11-01T21:29:35.602Z,992.32
2018-11-01T21:30:33.543Z,992.30
2018-11-01T21:32:28.764Z,992.26
2018-11-01T21:33:27.224Z,992.25
2018-11-01T21:35:20.984Z,992.31
2018-11-01T21:36:20.395Z,992.40
2018-11-01T21:39:00.483Z,992.43
2018-11-01T21:40:00.580Z,992.45
2018-11-01T21:41:54.633Z,992.52
2018-11-01T21:42:54.008Z,992.48
2018-11-01T21:44:50.019Z,992.46
2018-11-01T21:45:49.384Z,992.47
2018-11-01T21:46:49.239Z,992.49
2018-11-01T21:47:50.577Z,992.53
2018-11-01T21:48:49.214Z,992.57
2018-11-01T21:49:58.681Z,992.59
2018-11-01T21:52:08.047Z,992.57
2018-11-01T21:53:07.584Z,992.58
2018-11-01T21:55:00.977Z,992.63
2018-11-01T21:56:00.615Z,992.59
2018-11-01T21:57:53.599Z,992.62
2018-11-01T21:58:53.689Z,992.63
2018-11-01T22:00:46.243Z,992.60
2018-11-01T22:01:46.118Z,992.53
2018-11-01T22:03:39.208Z,992.48
2018-11-01T22:04:39.340Z,992.54
2018-11-01T22:06:32.276Z,992.44
2018-11-01T22:07:31.925Z,992.45
2018-11-01T22:09:25.018Z,992.40
2018-11-01T22:10:24.726Z,992.42
2018-11-01T22:12:17.735Z,992.40
2018-11-01T22:13:17.551Z,992.36
2018-11-01T22:15:10.862Z,992.33
2018-11-01T22:16:10.518Z,992.34
2018-11-01T22:18:04.350Z,992.35
2018-11-01T22:20:44.682Z,992.35
2018-11-01T22:21:43.753Z,992.35
2018-11-01T22:22:44.623Z,992.38
2018-11-01T22:23:43.630Z,992.42
2018-11-01T22:24:43.644Z,992.36
2018-11-01T22:25:43.914Z,992.30
2018-11-01T22:26:43.604Z,992.35
2018-11-01T22:27:43.589Z,992.34
2018-11-01T22:28:43.652Z,992.38
2018-11-01T22:29:43.570Z,992.37
2018-11-01T22:30:43.570Z,992.33
2018-11-01T22:31:43.575Z,992.43
2018-11-01T22:32:43.561Z,992.39
2018-11-01T22:33:43.535Z,992.40
2018-11-01T22:34:43.583Z,992.44
2018-11-01T22:35:43.758Z,992.46
2018-11-01T22:36:43.603Z,992.43
2018-11-01T22:41:06.220Z,992.43
2018-11-01T22:42:06.384Z,992.47
2018-11-01T22:43:59.246Z,992.36
2018-11-01T22:44:58.778Z,992.31
